createdAt,value
2017-09-26T00:00:44.705Z,0
2017-09-26T00:01:45.494Z,0
2017-09-26T00:02:46.218Z,0
2017-09-26T00:03:47.016Z,0
2017-09-26T00:04:47.825Z,0
2017-09-26T00:05:48.884Z,0
2017-09-26T00:06:49.623Z,0
2017-09-26T00:07:50.355Z,0
2017-09-26T00:08:51.169Z,0
2017-09-26T00:09:51.965Z,0
2017-09-26T00:10:53.135Z,0
2017-09-26T00:11:53.864Z,0
2017-09-26T00:12:54.609Z,0
2017-09-26T00:13:55.362Z,0
2017-09-26T00:14:56.096Z,0
2017-09-26T00:15:57.305Z,0
2017-09-26T00:16:58.044Z,0
2017-09-26T00:17:58.776Z,0
2017-09-26T00:18:59.516Z,0
2017-09-26T00:20:00.245Z,0
2017-09-26T00:21:01.324Z,0
2017-09-26T00:22:02.057Z,0
2017-09-26T00:23:02.835Z,0
2017-09-26T00:24:03.574Z,0
2017-09-26T00:25:04.312Z,0
2017-09-26T00:26:05.424Z,0
2017-09-26T00:27:06.165Z,0
2017-09-26T00:28:06.955Z,0
2017-09-26T00:29:07.685Z,0
2017-09-26T00:30:08.426Z,0
2017-09-26T00:31:09.528Z,0
2017-09-26T00:32:10.314Z,0
2017-09-26T00:33:11.049Z,0
2017-09-26T00:34:11.835Z,0
2017-09-26T00:35:12.658Z,0
2017-09-26T00:36:13.725Z,0
2017-09-26T00:37:14.473Z,0
2017-09-26T00:38:15.215Z,0
2017-09-26T00:39:15.950Z,0
2017-09-26T00:40:16.694Z,0
2017-09-26T00:41:17.814Z,0
2017-09-26T00:42:18.547Z,0
2017-09-26T00:43:19.345Z,0
2017-09-26T00:44:20.090Z,0
2017-09-26T00:45:20.814Z,0
2017-09-26T00:46:21.697Z,0
2017-09-26T00:47:22.426Z,0
2017-09-26T00:48:23.164Z,0
2017-09-26T00:49:23.908Z,0
2017-09-26T00:50:24.684Z,0
2017-09-26T00:51:25.620Z,0
2017-09-26T00:52:26.393Z,0
2017-09-26T00:53:27.188Z,0
2017-09-26T00:54:27.920Z,0
2017-09-26T00:55:28.725Z,0
2017-09-26T00:56:29.755Z,0
2017-09-26T00:57:30.483Z,0
2017-09-26T00:58:31.235Z,0
2017-09-26T00:59:31.971Z,0
2017-09-26T01:00:32.788Z,0
2017-09-26T01:01:33.593Z,0
2017-09-26T01:02:34.337Z,0
2017-09-26T01:03:35.103Z,0
2017-09-26T01:04:35.834Z,0
2017-09-26T01:05:36.573Z,0
2017-09-26T01:06:37.309Z,0
2017-09-26T01:07:38.034Z,0
2017-09-26T01:08:38.764Z,0
2017-09-26T01:09:39.694Z,0
2017-09-26T01:10:40.442Z,0
2017-09-26T01:11:41.207Z,0
2017-09-26T01:12:42.015Z,0
2017-09-26T01:13:42.753Z,0
2017-09-26T01:14:43.684Z,0
2017-09-26T01:15:44.426Z,0
2017-09-26T01:16:45.260Z,0
2017-09-26T01:17:45.984Z,0
2017-09-26T01:18:46.712Z,0
2017-09-26T01:19:47.904Z,0
2017-09-26T01:20:48.709Z,0
2017-09-26T01:21:49.440Z,0
2017-09-26T01:22:50.219Z,0
2017-09-26T01:23:51.014Z,0
2017-09-26T01:24:51.994Z,0
2017-09-26T01:25:52.726Z,0
2017-09-26T01:26:53.542Z,0
2017-09-26T01:27:54.286Z,0
2017-09-26T01:28:55.029Z,0
2017-09-26T01:29:56.224Z,0
2017-09-26T01:30:57.010Z,0
2017-09-26T01:31:57.744Z,0
2017-09-26T01:32:58.492Z,0
2017-09-26T01:33:59.264Z,0
2017-09-26T01:35:00.412Z,0
2017-09-26T01:36:01.148Z,0
2017-09-26T01:37:01.873Z,0
2017-09-26T01:38:02.605Z,0
2017-09-26T01:39:03.345Z,0
2017-09-26T01:40:04.368Z,0
2017-09-26T01:41:05.110Z,0
2017-09-26T01:42:05.906Z,0
2017-09-26T01:43:06.708Z,0
2017-09-26T01:44:07.484Z,0
2017-09-26T01:45:08.614Z,0
2017-09-26T01:46:09.346Z,0
2017-09-26T01:47:10.161Z,0
2017-09-26T01:48:10.877Z,0
2017-09-26T01:49:11.620Z,0
2017-09-26T01:50:12.688Z,0
2017-09-26T01:51:13.428Z,0
2017-09-26T01:52:14.165Z,0
2017-09-26T01:53:14.906Z,0
2017-09-26T01:54:15.699Z,0
2017-09-26T01:55:16.633Z,0
2017-09-26T01:56:17.383Z,0
2017-09-26T01:57:18.148Z,0
2017-09-26T01:58:18.942Z,0
2017-09-26T01:59:19.753Z,0
2017-09-26T02:00:20.860Z,0
2017-09-26T02:01:21.594Z,0
2017-09-26T02:02:22.322Z,0
2017-09-26T02:03:23.055Z,0
2017-09-26T02:04:23.800Z,0
2017-09-26T02:05:24.945Z,0
2017-09-26T02:06:25.749Z,0
2017-09-26T02:07:26.510Z,0
2017-09-26T02:08:27.288Z,0
2017-09-26T02:09:28.095Z,0
2017-09-26T02:10:29.045Z,0
2017-09-26T02:11:29.780Z,0
2017-09-26T02:12:30.516Z,0
2017-09-26T02:13:31.315Z,0
2017-09-26T02:14:32.043Z,0
2017-09-26T02:15:33.086Z,0
2017-09-26T02:16:33.889Z,0
2017-09-26T02:17:34.684Z,0
2017-09-26T02:18:35.483Z,0
2017-09-26T02:19:36.214Z,0
2017-09-26T02:20:37.363Z,0
2017-09-26T02:21:38.180Z,0
2017-09-26T02:22:38.945Z,0
2017-09-26T02:23:39.672Z,0
2017-09-26T02:24:40.430Z,0
2017-09-26T02:25:41.199Z,0
2017-09-26T02:26:41.933Z,0
2017-09-26T02:27:42.971Z,0
2017-09-26T02:28:43.722Z,0
2017-09-26T02:29:44.513Z,0
2017-09-26T02:30:45.248Z,0
2017-09-26T02:31:45.978Z,0
2017-09-26T02:32:47.011Z,0
2017-09-26T02:33:47.741Z,0
2017-09-26T02:34:48.488Z,0
2017-09-26T02:35:49.155Z,0
2017-09-26T02:36:49.887Z,0
2017-09-26T02:37:50.623Z,0
2017-09-26T02:38:51.369Z,0
2017-09-26T02:39:52.356Z,0
2017-09-26T02:40:53.091Z,0
2017-09-26T02:41:53.894Z,0
2017-09-26T02:42:54.624Z,0
2017-09-26T02:43:55.360Z,0
2017-09-26T02:44:56.414Z,0
2017-09-26T02:45:57.145Z,0
2017-09-26T02:46:57.955Z,0
2017-09-26T02:47:58.774Z,0
2017-09-26T02:48:59.518Z,0
2017-09-26T02:50:00.294Z,0
2017-09-26T02:51:01.435Z,0
2017-09-26T02:52:02.178Z,0
2017-09-26T02:53:02.924Z,0
2017-09-26T02:54:03.742Z,0
2017-09-26T02:55:04.534Z,0
2017-09-26T02:56:05.614Z,0
2017-09-26T02:57:06.344Z,0
2017-09-26T02:58:07.080Z,0
2017-09-26T02:59:07.813Z,0
2017-09-26T03:00:08.544Z,0
2017-09-26T03:01:09.283Z,0
2017-09-26T03:02:10.431Z,0
2017-09-26T03:03:11.176Z,0
2017-09-26T03:04:11.960Z,0
2017-09-26T03:05:12.691Z,0
2017-09-26T03:06:13.431Z,0
2017-09-26T03:07:14.520Z,0
2017-09-26T03:08:15.258Z,0
2017-09-26T03:09:15.988Z,0
2017-09-26T03:10:16.807Z,0
2017-09-26T03:11:17.621Z,0
2017-09-26T03:12:18.716Z,0
2017-09-26T03:13:19.524Z,0
2017-09-26T03:14:20.334Z,0
2017-09-26T03:15:21.071Z,0
2017-09-26T03:16:21.810Z,0
2017-09-26T03:17:22.552Z,0
2017-09-26T03:18:23.273Z,0
2017-09-26T03:19:24.086Z,0
2017-09-26T03:20:25.186Z,0
2017-09-26T03:21:25.931Z,0
2017-09-26T03:22:26.660Z,0
2017-09-26T03:23:27.400Z,0
2017-09-26T03:24:28.156Z,0
2017-09-26T03:25:28.892Z,0
2017-09-26T03:26:30.032Z,0
2017-09-26T03:27:30.840Z,0
2017-09-26T03:28:31.588Z,0
2017-09-26T03:29:32.349Z,0
2017-09-26T03:30:33.083Z,0
2017-09-26T03:31:34.291Z,0
2017-09-26T03:32:35.021Z,0
2017-09-26T03:33:35.751Z,0
2017-09-26T03:34:36.551Z,0
2017-09-26T03:35:37.304Z,0
2017-09-26T03:36:38.348Z,0
2017-09-26T03:37:39.154Z,0
2017-09-26T03:38:39.887Z,0
2017-09-26T03:39:40.623Z,0
2017-09-26T03:40:41.410Z,0
2017-09-26T03:41:42.547Z,0
2017-09-26T03:42:43.333Z,0
2017-09-26T03:43:44.078Z,0
2017-09-26T03:44:44.805Z,0
2017-09-26T03:45:45.543Z,0
2017-09-26T03:46:46.573Z,0
2017-09-26T03:47:47.342Z,0
2017-09-26T03:48:48.120Z,0
2017-09-26T03:49:48.855Z,0
2017-09-26T03:50:49.583Z,0
2017-09-26T03:51:50.732Z,0
2017-09-26T03:52:51.528Z,0
2017-09-26T03:53:52.303Z,0
2017-09-26T03:54:53.039Z,0
2017-09-26T03:55:53.765Z,0
2017-09-26T03:56:54.873Z,0
2017-09-26T03:57:55.620Z,0
2017-09-26T03:58:56.414Z,0
2017-09-26T03:59:57.171Z,0
2017-09-26T04:00:57.967Z,0
2017-09-26T04:01:58.982Z,0
2017-09-26T04:02:59.803Z,0
2017-09-26T04:04:00.535Z,0
2017-09-26T04:05:01.278Z,0
2017-09-26T04:06:02.086Z,0
2017-09-26T04:07:02.823Z,0
2017-09-26T04:08:03.564Z,0
2017-09-26T04:09:04.285Z,0
2017-09-26T04:10:05.013Z,0
2017-09-26T04:11:05.748Z,0
2017-09-26T04:12:06.484Z,0
2017-09-26T04:13:07.219Z,0
2017-09-26T04:14:08.310Z,0
2017-09-26T04:15:09.033Z,0
2017-09-26T04:16:09.784Z,0
2017-09-26T04:17:10.554Z,0
2017-09-26T04:18:11.289Z,0
2017-09-26T04:19:12.314Z,0
2017-09-26T04:20:13.043Z,0
2017-09-26T04:21:13.779Z,0
2017-09-26T04:22:14.584Z,0
2017-09-26T04:23:15.319Z,0
2017-09-26T04:24:16.452Z,0
2017-09-26T04:25:17.265Z,0
2017-09-26T04:26:18.030Z,0
2017-09-26T04:27:18.823Z,0
2017-09-26T04:28:19.556Z,0
2017-09-26T04:29:20.657Z,0
2017-09-26T04:30:21.426Z,0
2017-09-26T04:31:22.158Z,0
2017-09-26T04:32:22.967Z,0
2017-09-26T04:33:23.708Z,0
2017-09-26T04:34:24.833Z,0
2017-09-26T04:35:25.564Z,0
2017-09-26T04:36:26.294Z,0
2017-09-26T04:37:27.048Z,0
2017-09-26T04:38:27.822Z,0
2017-09-26T04:39:28.555Z,0
2017-09-26T04:40:29.362Z,0
2017-09-26T04:41:30.144Z,0
2017-09-26T04:42:30.870Z,0
2017-09-26T04:43:31.670Z,0
2017-09-26T04:44:32.653Z,0
2017-09-26T04:45:33.384Z,0
2017-09-26T04:46:34.114Z,0
2017-09-26T04:47:34.843Z,0
2017-09-26T04:48:35.587Z,0
2017-09-26T04:49:36.747Z,0
2017-09-26T04:50:37.570Z,0
2017-09-26T04:51:38.319Z,0
2017-09-26T04:52:39.038Z,0
2017-09-26T04:53:39.773Z,0
2017-09-26T04:54:40.852Z,0
2017-09-26T04:55:41.578Z,0
2017-09-26T04:56:42.317Z,0
2017-09-26T04:57:43.103Z,0
2017-09-26T04:58:43.879Z,0
2017-09-26T04:59:44.927Z,0
2017-09-26T05:00:45.658Z,0
2017-09-26T05:01:46.464Z,0
2017-09-26T05:02:47.201Z,0
2017-09-26T05:03:47.951Z,0
2017-09-26T05:04:48.983Z,0
2017-09-26T05:05:49.724Z,0
2017-09-26T05:06:50.514Z,0
2017-09-26T05:07:51.254Z,0
2017-09-26T05:08:51.983Z,0
2017-09-26T05:09:52.715Z,0
2017-09-26T05:10:53.519Z,0
2017-09-26T05:11:54.323Z,0
2017-09-26T05:12:55.081Z,0
2017-09-26T05:13:56.184Z,0
2017-09-26T05:14:57.001Z,0
2017-09-26T05:15:57.735Z,5
2017-09-26T05:16:58.542Z,5
2017-09-26T05:17:59.278Z,5
2017-09-26T05:19:00.214Z,5
2017-09-26T05:20:01.031Z,5
2017-09-26T05:21:01.763Z,5
2017-09-26T05:22:02.483Z,5
2017-09-26T05:23:03.226Z,11
2017-09-26T05:24:04.286Z,11
2017-09-26T05:25:05.077Z,11
2017-09-26T05:26:05.816Z,11
2017-09-26T05:27:06.618Z,11
2017-09-26T05:28:07.429Z,11
2017-09-26T05:29:08.559Z,16
2017-09-26T05:30:09.320Z,16
2017-09-26T05:31:10.142Z,16
2017-09-26T05:32:11.894Z,16
2017-09-26T05:33:12.601Z,22
2017-09-26T05:34:13.714Z,22
2017-09-26T05:35:14.448Z,22
2017-09-26T05:36:15.204Z,22
2017-09-26T05:37:16.012Z,22
2017-09-26T05:38:16.747Z,28
2017-09-26T05:39:17.945Z,28
2017-09-26T05:40:18.750Z,28
2017-09-26T05:41:19.493Z,28
2017-09-26T05:42:20.228Z,33
2017-09-26T05:43:20.964Z,33
2017-09-26T05:44:21.702Z,33
2017-09-26T05:45:22.522Z,39
2017-09-26T05:46:23.263Z,39
2017-09-26T05:47:24.080Z,45
2017-09-26T05:48:25.204Z,45
2017-09-26T05:49:25.947Z,45
2017-09-26T05:50:26.685Z,45
2017-09-26T05:51:27.432Z,50
2017-09-26T05:52:28.173Z,50
2017-09-26T05:53:29.203Z,50
2017-09-26T05:54:29.944Z,50
2017-09-26T05:55:30.703Z,50
2017-09-26T05:56:31.492Z,56
2017-09-26T05:57:32.312Z,56
2017-09-26T05:58:33.246Z,61
2017-09-26T05:59:33.987Z,61
2017-09-26T06:00:34.773Z,67
2017-09-26T06:01:35.512Z,67
2017-09-26T06:02:36.253Z,73
2017-09-26T06:03:37.292Z,78
2017-09-26T06:04:38.041Z,78
2017-09-26T06:05:38.814Z,78
2017-09-26T06:06:39.557Z,84
2017-09-26T06:07:40.363Z,84
2017-09-26T06:08:41.454Z,90
2017-09-26T06:09:42.253Z,95
2017-09-26T06:10:42.993Z,95
2017-09-26T06:11:43.740Z,101
2017-09-26T06:12:44.486Z,112
2017-09-26T06:13:45.219Z,118
2017-09-26T06:14:46.038Z,129
2017-09-26T06:15:46.823Z,140
2017-09-26T06:16:47.566Z,146
2017-09-26T06:17:48.372Z,146
2017-09-26T06:18:49.414Z,146
2017-09-26T06:19:50.145Z,151
2017-09-26T06:20:50.883Z,151
2017-09-26T06:21:51.624Z,146
2017-09-26T06:22:52.364Z,146
2017-09-26T06:23:53.560Z,151
2017-09-26T06:24:54.339Z,151
2017-09-26T06:25:55.067Z,163
2017-09-26T06:26:55.804Z,163
2017-09-26T06:27:56.544Z,163
2017-09-26T06:28:57.525Z,157
2017-09-26T06:29:58.267Z,151
2017-09-26T06:30:59.009Z,151
2017-09-26T06:32:00.403Z,151
2017-09-26T06:33:01.232Z,157
2017-09-26T06:34:02.418Z,174
2017-09-26T06:35:03.180Z,168
2017-09-26T06:36:03.942Z,163
2017-09-26T06:37:04.689Z,168
2017-09-26T06:38:05.488Z,174
2017-09-26T06:39:06.631Z,174
2017-09-26T06:40:07.369Z,174
2017-09-26T06:41:08.179Z,180
2017-09-26T06:42:08.957Z,180
2017-09-26T06:43:09.707Z,191
2017-09-26T06:44:10.880Z,202
2017-09-26T06:45:11.625Z,202
2017-09-26T06:46:12.390Z,208
2017-09-26T06:47:13.180Z,202
2017-09-26T06:48:13.909Z,213
2017-09-26T06:49:15.135Z,219
2017-09-26T06:50:15.941Z,213
2017-09-26T06:51:16.739Z,208
2017-09-26T06:52:17.527Z,208
2017-09-26T06:53:18.320Z,208
2017-09-26T06:54:19.449Z,208
2017-09-26T06:55:20.237Z,208
2017-09-26T06:56:21.024Z,219
2017-09-26T06:57:21.822Z,219
2017-09-26T06:58:22.558Z,219
2017-09-26T06:59:23.713Z,230
2017-09-26T07:00:24.444Z,225
2017-09-26T07:01:25.183Z,213
2017-09-26T07:02:25.924Z,225
2017-09-26T07:03:26.724Z,219
2017-09-26T07:04:28.524Z,219
2017-09-26T07:05:29.335Z,213
2017-09-26T07:06:30.153Z,208
2017-09-26T07:07:30.906Z,208
2017-09-26T07:08:31.707Z,208
2017-09-26T07:09:32.645Z,213
2017-09-26T07:10:33.386Z,208
2017-09-26T07:11:34.204Z,213
2017-09-26T07:12:34.945Z,213
2017-09-26T07:13:35.755Z,213
2017-09-26T07:14:36.974Z,213
2017-09-26T07:15:37.784Z,208
2017-09-26T07:16:38.527Z,208
2017-09-26T07:17:39.335Z,208
2017-09-26T07:18:40.074Z,208
2017-09-26T07:19:41.122Z,202
2017-09-26T07:20:41.906Z,202
2017-09-26T07:21:42.726Z,196
2017-09-26T07:22:43.534Z,196
2017-09-26T07:23:44.274Z,196
2017-09-26T07:24:45.020Z,196
2017-09-26T07:25:45.828Z,196
2017-09-26T07:26:46.623Z,191
2017-09-26T07:27:47.369Z,191
2017-09-26T07:28:48.143Z,202
2017-09-26T07:29:48.926Z,202
2017-09-26T07:30:49.724Z,202
2017-09-26T07:31:50.770Z,202
2017-09-26T07:32:51.523Z,219
2017-09-26T07:33:52.263Z,219
2017-09-26T07:34:53.000Z,225
2017-09-26T07:35:53.743Z,225
2017-09-26T07:36:54.677Z,236
2017-09-26T07:37:55.413Z,236
2017-09-26T07:38:56.159Z,236
2017-09-26T07:39:56.936Z,241
2017-09-26T07:40:57.744Z,230
2017-09-26T07:41:58.883Z,241
2017-09-26T07:42:59.626Z,253
2017-09-26T07:44:00.434Z,264
2017-09-26T07:45:01.184Z,275
2017-09-26T07:46:01.917Z,281
2017-09-26T07:47:02.995Z,298
2017-09-26T07:48:03.728Z,315
2017-09-26T07:49:04.476Z,315
2017-09-26T07:50:05.225Z,326
2017-09-26T07:51:06.026Z,331
2017-09-26T07:52:07.061Z,343
2017-09-26T07:53:07.788Z,348
2017-09-26T07:54:08.525Z,360
2017-09-26T07:55:09.264Z,365
2017-09-26T07:56:10.004Z,354
2017-09-26T07:57:11.105Z,376
2017-09-26T07:58:11.928Z,388
2017-09-26T07:59:12.705Z,393
2017-09-26T08:00:13.454Z,393
2017-09-26T08:01:14.194Z,371
2017-09-26T08:02:14.981Z,382
2017-09-26T08:03:15.724Z,365
2017-09-26T08:04:16.675Z,393
2017-09-26T08:05:17.413Z,388
2017-09-26T08:06:18.146Z,421
2017-09-26T08:07:18.954Z,433
2017-09-26T08:08:19.702Z,433
2017-09-26T08:09:20.634Z,444
2017-09-26T08:10:21.390Z,506
2017-09-26T08:11:22.190Z,506
2017-09-26T08:12:22.926Z,517
2017-09-26T08:13:23.754Z,534
2017-09-26T08:14:24.844Z,511
2017-09-26T08:15:25.584Z,556
2017-09-26T08:16:26.324Z,579
2017-09-26T08:17:27.125Z,568
2017-09-26T08:18:27.928Z,517
2017-09-26T08:19:29.009Z,517
2017-09-26T08:20:29.747Z,500
2017-09-26T08:21:30.493Z,511
2017-09-26T08:22:31.234Z,573
2017-09-26T08:23:31.975Z,641
2017-09-26T08:24:33.120Z,624
2017-09-26T08:25:33.933Z,590
2017-09-26T08:26:34.765Z,613
2017-09-26T08:27:35.499Z,658
2017-09-26T08:28:36.244Z,714
2017-09-26T08:29:37.389Z,686
2017-09-26T08:30:38.174Z,669
2017-09-26T08:31:38.925Z,646
2017-09-26T08:32:39.678Z,596
2017-09-26T08:33:40.444Z,579
2017-09-26T08:34:41.394Z,517
2017-09-26T08:35:42.138Z,483
2017-09-26T08:36:42.913Z,506
2017-09-26T08:37:43.655Z,478
2017-09-26T08:38:44.459Z,461
2017-09-26T08:39:45.545Z,444
2017-09-26T08:40:46.279Z,534
2017-09-26T08:41:47.080Z,568
2017-09-26T08:42:47.898Z,585
2017-09-26T08:43:48.681Z,579
2017-09-26T08:44:49.775Z,523
2017-09-26T08:45:50.581Z,517
2017-09-26T08:46:51.317Z,573
2017-09-26T08:47:52.054Z,607
2017-09-26T08:48:52.787Z,545
2017-09-26T08:49:53.957Z,540
2017-09-26T08:50:54.694Z,528
2017-09-26T08:51:55.444Z,556
2017-09-26T08:52:56.199Z,596
2017-09-26T08:53:56.975Z,635
2017-09-26T08:54:57.717Z,624
2017-09-26T08:55:58.494Z,579
2017-09-26T08:56:59.246Z,506
2017-09-26T08:58:00.065Z,534
2017-09-26T08:59:00.804Z,495
2017-09-26T09:00:01.834Z,540
2017-09-26T09:01:02.578Z,534
2017-09-26T09:02:03.355Z,545
2017-09-26T09:03:04.113Z,500
2017-09-26T09:04:04.895Z,472
2017-09-26T09:05:05.640Z,500
2017-09-26T09:06:06.764Z,478
2017-09-26T09:07:07.494Z,500
2017-09-26T09:08:08.233Z,466
2017-09-26T09:09:08.974Z,444
2017-09-26T09:10:09.734Z,540
2017-09-26T09:11:10.677Z,573
2017-09-26T09:12:11.484Z,500
2017-09-26T09:13:12.216Z,562
2017-09-26T09:14:13.032Z,686
2017-09-26T09:15:13.774Z,703
2017-09-26T09:16:14.928Z,697
2017-09-26T09:17:15.728Z,675
2017-09-26T09:18:16.525Z,691
2017-09-26T09:19:17.258Z,669
2017-09-26T09:20:17.994Z,596
2017-09-26T09:21:19.075Z,568
2017-09-26T09:22:19.953Z,601
2017-09-26T09:23:20.634Z,748
2017-09-26T09:24:21.382Z,877
2017-09-26T09:25:22.205Z,939
2017-09-26T09:26:23.376Z,995
2017-09-26T09:27:24.174Z,1113
2017-09-26T09:28:24.924Z,1231
2017-09-26T09:29:25.664Z,1158
2017-09-26T09:30:26.440Z,1158
2017-09-26T09:31:27.204Z,1018
2017-09-26T09:32:27.944Z,916
2017-09-26T09:33:28.691Z,860
2017-09-26T09:34:29.375Z,900
2017-09-26T09:35:30.139Z,1001
2017-09-26T09:36:31.164Z,973
2017-09-26T09:37:31.903Z,978
2017-09-26T09:38:32.654Z,860
2017-09-26T09:39:33.403Z,900
2017-09-26T09:40:34.136Z,950
2017-09-26T09:41:34.874Z,894
2017-09-26T09:42:35.942Z,855
2017-09-26T09:43:36.749Z,810
2017-09-26T09:44:37.564Z,804
2017-09-26T09:45:38.435Z,742
2017-09-26T09:46:39.243Z,770
2017-09-26T09:47:40.333Z,838
2017-09-26T09:48:41.098Z,888
2017-09-26T09:49:41.882Z,855
2017-09-26T09:50:42.614Z,871
2017-09-26T09:51:43.353Z,933
2017-09-26T09:52:44.491Z,956
2017-09-26T09:53:45.228Z,871
2017-09-26T09:54:45.965Z,798
2017-09-26T09:55:46.704Z,821
2017-09-26T09:56:47.453Z,984
2017-09-26T09:57:48.405Z,1029
2017-09-26T09:58:49.134Z,1136
2017-09-26T09:59:49.885Z,1226
2017-09-26T10:00:50.703Z,1068
2017-09-26T10:01:51.448Z,1316
2017-09-26T10:02:52.596Z,2143
2017-09-26T10:03:53.329Z,2244
2017-09-26T10:04:54.069Z,2013
2017-09-26T10:05:54.817Z,3228
2017-09-26T10:06:55.573Z,3706
2017-09-26T10:07:56.727Z,3172
2017-09-26T10:08:57.545Z,3948
2017-09-26T10:09:58.292Z,3628
2017-09-26T10:10:59.054Z,3543
2017-09-26T10:11:59.795Z,2261
2017-09-26T10:13:00.863Z,1951
2017-09-26T10:14:01.650Z,3071
2017-09-26T10:15:02.446Z,2964
2017-09-26T10:16:03.253Z,2733
2017-09-26T10:17:04.004Z,4235
2017-09-26T10:18:05.004Z,1586
2017-09-26T10:19:05.798Z,1451
2017-09-26T10:20:06.543Z,1260
2017-09-26T10:21:07.304Z,1153
2017-09-26T10:22:08.043Z,1141
2017-09-26T10:23:09.137Z,1215
2017-09-26T10:24:09.876Z,1130
2017-09-26T10:25:10.619Z,1186
2017-09-26T10:26:11.419Z,1186
2017-09-26T10:27:12.205Z,1001
2017-09-26T10:28:13.003Z,883
2017-09-26T10:29:13.745Z,765
2017-09-26T10:30:14.473Z,714
2017-09-26T10:31:15.216Z,748
2017-09-26T10:32:16.164Z,776
2017-09-26T10:33:16.987Z,793
2017-09-26T10:34:17.717Z,843
2017-09-26T10:35:18.468Z,871
2017-09-26T10:36:19.204Z,939
2017-09-26T10:37:20.344Z,973
2017-09-26T10:38:21.158Z,900
2017-09-26T10:39:21.986Z,905
2017-09-26T10:40:22.804Z,888
2017-09-26T10:41:23.542Z,843
2017-09-26T10:42:24.647Z,855
2017-09-26T10:43:25.383Z,894
2017-09-26T10:44:26.125Z,950
2017-09-26T10:45:26.932Z,888
2017-09-26T10:46:27.685Z,866
2017-09-26T10:47:28.885Z,922
2017-09-26T10:48:29.633Z,939
2017-09-26T10:49:30.392Z,967
2017-09-26T10:50:31.133Z,1198
2017-09-26T10:51:31.886Z,1091
2017-09-26T10:52:33.045Z,1136
2017-09-26T10:53:33.857Z,1310
2017-09-26T10:54:34.683Z,1299
2017-09-26T10:55:35.426Z,2261
2017-09-26T10:56:36.179Z,2407
2017-09-26T10:57:37.332Z,1541
2017-09-26T10:58:38.073Z,1305
2017-09-26T10:59:38.824Z,1158
2017-09-26T11:00:39.574Z,1051
2017-09-26T11:01:40.327Z,1018
2017-09-26T11:02:41.449Z,1012
2017-09-26T11:03:42.286Z,967
2017-09-26T11:04:43.014Z,916
2017-09-26T11:05:43.763Z,911
2017-09-26T11:06:44.565Z,916
2017-09-26T11:07:45.793Z,916
2017-09-26T11:08:46.604Z,894
2017-09-26T11:09:47.453Z,922
2017-09-26T11:10:48.193Z,973
2017-09-26T11:11:49.289Z,1541
2017-09-26T11:12:50.022Z,1366
2017-09-26T11:13:50.877Z,1361
2017-09-26T11:14:51.621Z,1451
2017-09-26T11:15:52.363Z,1501
2017-09-26T11:16:53.207Z,1929
2017-09-26T11:17:53.975Z,1501
2017-09-26T11:18:54.713Z,1743
2017-09-26T11:19:55.466Z,2227
2017-09-26T11:20:56.519Z,2160
2017-09-26T11:21:57.303Z,2317
2017-09-26T11:22:58.044Z,2441
2017-09-26T11:23:58.853Z,2351
2017-09-26T11:24:59.596Z,2255
2017-09-26T11:26:00.538Z,2160
2017-09-26T11:27:01.316Z,2210
2017-09-26T11:28:02.054Z,1305
2017-09-26T11:29:02.857Z,2233
2017-09-26T11:30:03.645Z,2086
2017-09-26T11:31:04.677Z,2188
2017-09-26T11:32:05.492Z,888
2017-09-26T11:33:06.224Z,894
2017-09-26T11:34:07.054Z,1344
2017-09-26T11:35:07.875Z,1445
2017-09-26T11:36:08.927Z,1794
2017-09-26T11:37:09.693Z,1440
2017-09-26T11:38:10.443Z,1665
2017-09-26T11:39:11.184Z,1389
2017-09-26T11:40:12.027Z,1220
2017-09-26T11:41:13.174Z,1451
2017-09-26T11:42:13.936Z,1198
2017-09-26T11:43:14.667Z,1243
2017-09-26T11:44:15.460Z,1113
2017-09-26T11:45:17.288Z,1299
2017-09-26T11:46:18.675Z,1282
2017-09-26T11:47:19.495Z,1305
2017-09-26T11:48:20.325Z,1265
2017-09-26T11:49:21.123Z,1288
2017-09-26T11:50:21.871Z,1231
2017-09-26T11:51:24.416Z,1231
2017-09-26T11:52:25.507Z,1147
2017-09-26T11:53:26.613Z,1271
2017-09-26T11:54:28.369Z,1282
2017-09-26T11:55:29.425Z,1265
2017-09-26T11:56:30.496Z,1119
2017-09-26T11:57:31.318Z,1051
2017-09-26T11:58:32.133Z,1046
2017-09-26T11:59:32.955Z,1063
2017-09-26T12:00:33.697Z,1158
2017-09-26T12:01:34.894Z,1068
2017-09-26T12:02:35.633Z,1057
2017-09-26T12:03:36.450Z,1046
2017-09-26T12:04:37.258Z,1080
2017-09-26T12:05:38.068Z,978
2017-09-26T12:06:39.149Z,928
2017-09-26T12:07:39.970Z,911
2017-09-26T12:08:40.716Z,781
2017-09-26T12:09:41.457Z,1158
2017-09-26T12:10:42.203Z,1726
2017-09-26T12:11:43.024Z,1726
2017-09-26T12:12:44.751Z,669
2017-09-26T12:13:45.986Z,601
2017-09-26T12:14:46.744Z,624
2017-09-26T12:15:47.542Z,675
2017-09-26T12:16:49.074Z,697
2017-09-26T12:17:49.808Z,680
2017-09-26T12:18:50.771Z,686
2017-09-26T12:19:51.608Z,669
2017-09-26T12:20:52.436Z,641
2017-09-26T12:21:53.253Z,675
2017-09-26T12:22:54.039Z,742
2017-09-26T12:23:55.124Z,2210
2017-09-26T12:24:55.876Z,2272
2017-09-26T12:25:56.652Z,2109
2017-09-26T12:26:57.489Z,1788
2017-09-26T12:27:58.229Z,1676
2017-09-26T12:28:59.364Z,973
2017-09-26T12:30:00.112Z,2126
2017-09-26T12:31:00.892Z,855
2017-09-26T12:32:01.629Z,793
2017-09-26T12:33:02.413Z,781
2017-09-26T12:34:03.405Z,826
2017-09-26T12:35:04.216Z,826
2017-09-26T12:36:04.977Z,1035
2017-09-26T12:37:05.724Z,1096
2017-09-26T12:38:06.550Z,1192
2017-09-26T12:39:07.736Z,1321
2017-09-26T12:40:08.501Z,1873
2017-09-26T12:41:09.244Z,1985
2017-09-26T12:42:09.993Z,1271
2017-09-26T12:43:10.736Z,1805
2017-09-26T12:44:11.825Z,973
2017-09-26T12:45:12.598Z,1170
2017-09-26T12:46:13.337Z,793
2017-09-26T12:47:14.082Z,838
2017-09-26T12:48:14.824Z,1006
2017-09-26T12:49:15.634Z,1260
2017-09-26T12:50:16.454Z,1231
2017-09-26T12:51:17.197Z,1035
2017-09-26T12:52:17.943Z,1023
2017-09-26T12:53:19.041Z,1023
2017-09-26T12:54:19.859Z,1012
2017-09-26T12:55:20.666Z,1018
2017-09-26T12:56:21.526Z,1102
2017-09-26T12:57:22.262Z,1046
2017-09-26T12:58:23.194Z,1029
2017-09-26T12:59:23.934Z,1001
2017-09-26T13:00:24.734Z,950
2017-09-26T13:01:25.533Z,995
2017-09-26T13:02:26.278Z,956
2017-09-26T13:03:27.024Z,939
2017-09-26T13:04:27.852Z,905
2017-09-26T13:05:28.947Z,832
2017-09-26T13:06:29.743Z,967
2017-09-26T13:07:30.479Z,1001
2017-09-26T13:08:31.285Z,933
2017-09-26T13:09:32.046Z,950
2017-09-26T13:10:33.233Z,950
2017-09-26T13:11:33.973Z,961
2017-09-26T13:12:34.733Z,995
2017-09-26T13:13:35.488Z,984
2017-09-26T13:14:36.293Z,1018
2017-09-26T13:15:37.036Z,1096
2017-09-26T13:16:37.852Z,1164
2017-09-26T13:17:39.085Z,1203
2017-09-26T13:18:39.772Z,1209
2017-09-26T13:19:40.513Z,1175
2017-09-26T13:20:41.284Z,1102
2017-09-26T13:21:42.034Z,939
2017-09-26T13:22:43.293Z,860
2017-09-26T13:23:44.034Z,810
2017-09-26T13:24:44.762Z,838
2017-09-26T13:25:45.515Z,894
2017-09-26T13:26:46.326Z,961
2017-09-26T13:27:47.280Z,995
2017-09-26T13:28:48.030Z,1063
2017-09-26T13:29:48.853Z,1051
2017-09-26T13:30:49.674Z,1068
2017-09-26T13:31:50.473Z,1085
2017-09-26T13:32:51.468Z,1068
2017-09-26T13:33:52.295Z,1063
2017-09-26T13:34:53.096Z,1080
2017-09-26T13:35:53.833Z,1046
2017-09-26T13:36:54.582Z,1051
2017-09-26T13:37:55.323Z,1068
2017-09-26T13:38:56.272Z,1113
2017-09-26T13:39:57.074Z,1096
2017-09-26T13:40:57.883Z,1068
2017-09-26T13:41:58.625Z,1051
2017-09-26T13:42:59.455Z,1029
2017-09-26T13:44:00.254Z,1012
2017-09-26T13:45:01.453Z,1023
2017-09-26T13:46:02.269Z,1040
2017-09-26T13:47:03.091Z,1074
2017-09-26T13:48:03.789Z,1243
2017-09-26T13:49:04.528Z,1203
2017-09-26T13:50:05.722Z,1130
2017-09-26T13:51:06.463Z,1040
2017-09-26T13:52:07.206Z,843
2017-09-26T13:53:08.024Z,765
2017-09-26T13:54:08.769Z,703
2017-09-26T13:55:09.771Z,646
2017-09-26T13:56:10.515Z,596
2017-09-26T13:57:11.304Z,562
2017-09-26T13:58:12.046Z,528
2017-09-26T13:59:12.866Z,517
2017-09-26T14:00:13.603Z,495
2017-09-26T14:01:14.343Z,483
2017-09-26T14:02:15.447Z,472
2017-09-26T14:03:16.252Z,478
2017-09-26T14:04:17.063Z,483
2017-09-26T14:05:17.806Z,489
2017-09-26T14:06:18.542Z,500
2017-09-26T14:07:19.633Z,528
2017-09-26T14:08:20.374Z,562
2017-09-26T14:09:21.126Z,579
2017-09-26T14:10:21.954Z,573
2017-09-26T14:11:22.703Z,562
2017-09-26T14:12:23.700Z,540
2017-09-26T14:13:24.449Z,511
2017-09-26T14:14:25.254Z,500
2017-09-26T14:15:25.988Z,489
2017-09-26T14:16:26.793Z,489